Time;durP1;ratioP1;P1;durP2;ratioP2;P2;SDS_P1;SDS_P2;PMS_P1;PMS_P2;Temp;Humidity;BMP_temperature;BMP_pressure;BME280_temperature;BME280_humidity;BME280_pressure;Samples;Min_cycle;Max_cycle;Signal;HPM_P1;HPM_P2
2023/08/24 00:01:55;;;;;;;13.90;6.20;;;;;;;20.08;58.81;99404.12;81840;1298;3012509;-67
2023/08/24 00:04:22;;;;;;;20.70;6.40;;;;;;;20.13;58.86;99402.06;81823;1299;3011661;-63
2023/08/24 00:06:50;;;;;;;10.40;6.00;;;;;;;20.09;58.55;99405.80;80569;1298;3052446;-66
2023/08/24 00:09:17;;;;;;;15.60;6.90;;;;;;;20.11;57.85;99406.13;81863;1298;3012750;-63
2023/08/24 00:11:43;;;;;;;13.00;6.60;;;;;;;20.17;57.81;99405.43;81814;1300;3011205;-66
2023/08/24 00:14:11;;;;;;;21.90;9.30;;;;;;;20.19;57.40;99403.75;80595;1299;3026071;-64
2023/08/24 00:17:33;;;;;;;16.80;6.90;;;;;;;20.27;57.36;99408.27;80200;1302;3013130;-70
2023/08/24 00:20:00;;;;;;;15.90;7.00;;;;;;;20.24;56.81;99413.55;79106;1304;3011336;-66
2023/08/24 00:22:26;;;;;;;21.70;7.20;;;;;;;20.23;56.99;99408.69;78984;1302;3013452;-68
2023/08/24 00:24:54;;;;;;;18.50;6.10;;;;;;;20.21;56.84;99413.14;77739;1305;3026606;-65
2023/08/24 00:27:21;;;;;;;11.80;6.30;;;;;;;20.20;56.88;99416.45;79167;1304;3020758;-64
2023/08/24 00:29:48;;;;;;;13.90;6.20;;;;;;;20.20;57.05;99415.10;77561;1304;3011658;-68
2023/08/24 00:32:18;;;;;;;11.60;5.90;;;;;;;20.19;56.92;99411.25;78019;1299;3048733;-66
2023/08/24 00:34:45;;;;;;;14.00;7.10;;;;;;;20.16;56.80;99415.63;79133;1298;3013480;-67
2023/08/24 00:37:12;;;;;;;15.00;6.80;;;;;;;20.15;56.72;99414.46;79087;1299;3013745;-66
2023/08/24 00:39:41;;;;;;;19.60;8.20;;;;;;;20.13;56.88;99414.84;77978;1299;3053688;-65
2023/08/24 00:42:08;;;;;;;14.00;7.00;;;;;;;20.10;57.20;99412.16;79085;1301;3012962;-67
2023/08/24 00:44:36;;;;;;;21.80;7.20;;;;;;;20.10;57.24;99409.64;79291;1299;3011595;-68
2023/08/24 00:47:04;;;;;;;14.80;6.70;;;;;;;20.06;57.45;99409.69;77845;1303;3050796;-65
2023/08/24 00:49:30;;;;;;;28.40;12.70;;;;;;;20.01;58.55;99412.66;79104;1303;3013235;-67
2023/08/24 00:51:57;;;;;;;31.60;14.60;;;;;;;19.97;58.72;99417.36;79163;1299;3011618;-67
2023/08/24 00:54:25;;;;;;;26.00;13.60;;;;;;;19.92;59.32;99416.96;78026;1304;3028367;-67
2023/08/24 00:56:53;;;;;;;23.10;12.70;;;;;;;19.87;59.58;99419.82;79212;1303;3013707;-65
2023/08/24 00:59:19;;;;;;;29.50;14.80;;;;;;;19.84;59.58;99423.65;79130;1298;3013353;-67
2023/08/24 01:01:47;;;;;;;24.60;13.50;;;;;;;19.80;59.52;99418.48;77950;1304;3049937;-67
2023/08/24 01:04:14;;;;;;;23.90;11.60;;;;;;;19.74;60.09;99415.69;79214;1298;3013324;-67
2023/08/24 01:06:40;;;;;;;22.20;9.90;;;;;;;19.67;60.01;99415.83;79122;1299;3011609;-68
2023/08/24 01:09:09;;;;;;;25.90;10.60;;;;;;;19.62;60.55;99420.21;78084;1304;3028083;-68
2023/08/24 01:11:58;;;;;;;19.00;8.10;;;;;;;19.56;60.94;99416.09;79042;1304;3018348;-69
2023/08/24 01:14:34;;;;;;;15.70;8.60;;;;;;;19.49;61.47;99421.89;78032;1301;3056751;-67
2023/08/24 01:17:03;;;;;;;15.60;7.80;;;;;;;19.42;62.74;99422.39;77920;1303;3048345;-67
2023/08/24 01:19:39;;;;;;;18.90;7.40;;;;;;;19.36;63.14;99424.92;79242;1298;3016036;-66
2023/08/24 01:22:32;;;;;;;14.30;7.80;;;;;;;19.25;63.87;99423.91;78010;1304;3052269;-63
2023/08/24 01:25:10;;;;;;;14.30;8.60;;;;;;;19.18;64.42;99421.54;78073;1304;3052758;-67
2023/08/24 01:27:38;;;;;;;25.80;11.40;;;;;;;19.15;64.54;99425.25;77992;1304;3069396;-67
2023/08/24 01:30:05;;;;;;;18.00;9.30;;;;;;;19.12;64.66;99427.48;79187;1299;3013480;-71
2023/08/24 01:32:35;;;;;;;21.10;9.70;;;;;;;19.05;65.21;99427.45;79175;1298;3011758;-65
2023/08/24 01:35:07;;;;;;;19.60;9.10;;;;;;;19.02;65.29;99427.52;77981;1303;3053065;-65
2023/08/24 01:37:34;;;;;;;22.50;11.20;;;;;;;19.00;65.09;99432.48;79138;1298;3012181;-70
2023/08/24 01:40:20;;;;;;;43.50;19.70;;;;;;;18.97;64.70;99436.17;77942;1303;3052495;-64
2023/08/24 01:43:03;;;;;;;29.90;15.00;;;;;;;18.95;64.70;99434.53;78003;1303;3051750;-63
2023/08/24 01:45:32;;;;;;;22.80;11.40;;;;;;;18.95;63.66;99438.65;77966;1298;3068911;-62
2023/08/24 01:48:05;;;;;;;24.90;12.00;;;;;;;18.96;62.93;99438.60;79268;1298;3013533;-69
2023/08/24 01:50:32;;;;;;;31.40;11.70;;;;;;;18.91;62.97;99436.88;77985;1303;3049011;-68
2023/08/24 01:52:59;;;;;;;19.70;8.50;;;;;;;18.90;62.27;99434.99;79167;1301;3013259;-69
2023/08/24 01:55:26;;;;;;;18.80;6.70;;;;;;;18.92;62.13;99430.83;79131;1298;3011340;-64
2023/08/24 01:57:55;;;;;;;16.80;6.80;;;;;;;18.91;61.36;99432.46;77919;1304;3027903;-66
2023/08/24 02:00:22;;;;;;;16.40;6.30;;;;;;;18.91;61.01;99435.51;79182;1304;3013273;-67
2023/08/24 02:02:49;;;;;;;24.80;10.40;;;;;;;18.88;61.91;99434.33;79289;1301;3011506;-68
2023/08/24 02:05:17;;;;;;;21.30;9.40;;;;;;;18.86;61.88;99434.89;78083;1298;3048442;-68
2023/08/24 02:07:43;;;;;;;21.70;8.60;;;;;;;18.85;62.06;99443.15;79145;1298;3018645;-63
2023/08/24 02:10:10;;;;;;;18.90;9.40;;;;;;;18.79;62.91;99441.77;79123;1299;3013646;-63
2023/08/24 02:12:38;;;;;;;20.80;8.60;;;;;;;18.72;63.07;99440.42;77950;1304;3028344;-65
2023/08/24 02:15:05;;;;;;;16.80;8.00;;;;;;;18.66;63.06;99449.03;79215;1301;3013534;-65
2023/08/24 02:17:33;;;;;;;14.40;6.90;;;;;;;18.64;62.94;99447.23;79442;1298;3012134;-65
2023/08/24 02:20:02;;;;;;;13.40;6.20;;;;;;;18.63;62.85;99448.77;78018;1301;3050642;-63
2023/08/24 02:22:30;;;;;;;21.70;6.80;;;;;;;18.63;63.11;99440.60;79257;1298;3013439;-65
2023/08/24 02:25:01;;;;;;;14.40;6.60;;;;;;;18.61;63.27;99448.06;78652;1301;3012368;-65
2023/08/24 02:27:27;;;;;;;14.90;7.40;;;;;;;18.58;63.56;99451.35;79134;1301;3011588;-66
2023/08/24 02:29:54;;;;;;;15.50;6.50;;;;;;;18.54;63.43;99458.10;79240;1298;3011747;-66
2023/08/24 02:32:21;;;;;;;10.20;5.60;;;;;;;18.52;63.40;99460.09;77899;1304;3050653;-64
2023/08/24 02:34:48;;;;;;;11.60;5.70;;;;;;;18.50;62.88;99465.63;79146;1298;3013080;-67
2023/08/24 02:37:14;;;;;;;8.70;4.40;;;;;;;18.51;62.86;99464.65;79143;1298;3012217;-66
2023/08/24 02:39:43;;;;;;;15.20;5.10;;;;;;;18.49;63.00;99465.19;78024;1304;3050117;-64
2023/08/24 02:42:10;;;;;;;10.40;4.50;;;;;;;18.46;62.59;99469.51;79191;1303;3013365;-64
2023/08/24 02:44:36;;;;;;;10.20;5.50;;;;;;;18.48;62.46;99468.13;79273;1303;3011651;-66
2023/08/24 02:47:05;;;;;;;10.40;5.10;;;;;;;18.48;62.83;99468.77;78237;1303;3026505;-68
2023/08/24 02:49:31;;;;;;;10.40;4.10;;;;;;;18.48;61.95;99471.87;79141;1304;3013542;-72
2023/08/24 02:51:58;;;;;;;9.70;4.20;;;;;;;18.46;62.14;99473.20;79151;1303;3011210;-66
2023/08/24 02:54:25;;;;;;;10.60;4.70;;;;;;;18.48;61.35;99475.69;77915;1302;3028785;-71
2023/08/24 02:56:53;;;;;;;10.50;4.70;;;;;;;18.48;61.46;99478.92;79136;1303;3013509;-69
2023/08/24 02:59:20;;;;;;;12.00;4.30;;;;;;;18.50;61.46;99484.92;79348;1302;3011770;-69
2023/08/24 03:01:49;;;;;;;9.30;3.90;;;;;;;18.49;61.45;99484.11;78096;1303;3050277;-65
2023/08/24 03:04:16;;;;;;;10.30;3.90;;;;;;;18.51;61.17;99490.69;79175;1303;3018709;-68
2023/08/24 03:06:44;;;;;;;10.00;3.60;;;;;;;18.53;60.68;99489.62;79306;1301;3011667;-67
2023/08/24 03:09:12;;;;;;;11.00;3.50;;;;;;;18.55;60.34;99490.98;77947;1304;3049074;-68
2023/08/24 03:11:39;;;;;;;10.60;4.10;;;;;;;18.60;60.26;99491.41;79198;1303;3016215;-67
2023/08/24 03:14:05;;;;;;;11.50;3.90;;;;;;;18.63;59.83;99492.59;79277;1300;3011731;-68
2023/08/24 03:16:33;;;;;;;9.40;3.50;;;;;;;18.64;60.02;99495.03;78229;1300;3027020;-71
2023/08/24 03:19:00;;;;;;;13.60;4.30;;;;;;;18.64;60.08;99496.70;79159;1298;3013637;-68
2023/08/24 03:21:26;;;;;;;9.80;4.30;;;;;;;18.65;60.24;99495.21;79091;1303;3011748;-68
2023/08/24 03:23:55;;;;;;;10.10;4.60;;;;;;;18.67;60.15;99501.65;78053;1302;3026444;-64
2023/08/24 03:26:23;;;;;;;12.90;4.80;;;;;;;18.65;60.37;99503.08;79192;1303;3018543;-67
2023/08/24 03:28:50;;;;;;;10.20;5.10;;;;;;;18.61;60.65;99500.55;79113;1304;3013228;-67
2023/08/24 03:31:18;;;;;;;11.40;4.80;;;;;;;18.59;60.44;99501.80;77986;1304;3049895;-67
2023/08/24 03:33:45;;;;;;;16.50;5.20;;;;;;;18.59;60.60;99502.68;79116;1302;3013245;-66
2023/08/24 03:36:12;;;;;;;10.80;5.40;;;;;;;18.59;60.60;99504.62;79094;1298;3012061;-70
2023/08/24 03:38:40;;;;;;;14.90;5.30;;;;;;;18.57;60.89;99506.41;78039;1303;3050998;-70
2023/08/24 03:41:07;;;;;;;14.70;5.20;;;;;;;18.56;60.95;99505.06;79270;1304;3013553;-66
2023/08/24 03:43:35;;;;;;;10.90;5.50;;;;;;;18.58;60.90;99508.98;79262;1298;3013080;-67
2023/08/24 03:46:05;;;;;;;22.40;6.10;;;;;;;18.56;61.32;99508.81;77894;1303;3049492;-65
2023/08/24 03:48:32;;;;;;;11.00;5.20;;;;;;;18.57;61.20;99509.33;79262;1303;3012998;-68
2023/08/24 03:50:59;;;;;;;12.30;5.40;;;;;;;18.59;61.16;99512.15;79399;1298;3013702;-66
2023/08/24 03:53:27;;;;;;;19.40;6.70;;;;;;;18.56;61.66;99511.91;77972;1304;3049578;-70
2023/08/24 03:55:54;;;;;;;15.30;6.70;;;;;;;18.56;61.85;99510.11;79310;1304;3018696;-65
2023/08/24 03:58:21;;;;;;;13.00;5.50;;;;;;;18.57;61.31;99510.70;79449;1297;3011653;-63
2023/08/24 04:00:48;;;;;;;14.50;6.00;;;;;;;18.57;61.51;99515.10;78179;1303;3028844;-64
2023/08/24 04:03:15;;;;;;;13.50;5.50;;;;;;;18.60;61.36;99516.23;79366;1298;3013313;-69
2023/08/24 04:05:42;;;;;;;12.80;6.00;;;;;;;18.62;61.28;99511.86;79362;1304;3011629;-67
2023/08/24 04:08:10;;;;;;;15.30;6.30;;;;;;;18.70;60.47;99512.52;78155;1303;3026030;-66
2023/08/24 04:10:37;;;;;;;11.80;5.80;;;;;;;18.73;60.58;99513.65;79455;1299;3012574;-66
2023/08/24 04:13:03;;;;;;;14.00;5.40;;;;;;;18.78;60.32;99519.20;79316;1299;3011716;-65
2023/08/24 04:15:32;;;;;;;14.70;5.40;;;;;;;18.86;60.32;99516.71;77899;1303;3049199;-69
2023/08/24 04:17:59;;;;;;;15.90;5.40;;;;;;;18.88;60.06;99516.11;79195;1298;3015047;-69
2023/08/24 04:20:25;;;;;;;13.10;5.50;;;;;;;18.88;59.93;99514.20;79151;1298;3011810;-67
2023/08/24 04:22:54;;;;;;;10.70;5.30;;;;;;;18.93;59.60;99517.65;78040;1303;3050673;-69
2023/08/24 04:25:21;;;;;;;16.50;6.70;;;;;;;19.01;59.14;99517.82;79329;1301;3013146;-65
2023/08/24 04:27:47;;;;;;;16.00;6.70;;;;;;;19.07;58.96;99515.23;79221;1302;3011683;-66
2023/08/24 04:30:15;;;;;;;10.80;5.50;;;;;;;19.16;59.13;99512.67;78188;1303;3051497;-66
2023/08/24 04:32:42;;;;;;;13.10;5.60;;;;;;;19.21;58.68;99511.79;79379;1298;3021063;-71
2023/08/24 04:35:10;;;;;;;15.30;5.70;;;;;;;19.26;58.46;99514.28;79167;1298;3011574;-65
2023/08/24 04:37:38;;;;;;;18.50;5.40;;;;;;;19.35;58.14;99511.88;78054;1301;3050231;-61
2023/08/24 04:40:07;;;;;;;17.70;5.20;;;;;;;19.42;57.73;99519.72;79265;1304;3013452;-66
2023/08/24 04:42:36;;;;;;;11.00;5.30;;;;;;;19.51;57.50;99523.71;78883;1301;3011502;-64
2023/08/24 04:45:04;;;;;;;16.80;5.30;;;;;;;19.56;57.43;99524.10;79348;1302;3013300;-65
2023/08/24 04:47:30;;;;;;;18.60;5.40;;;;;;;19.62;57.54;99521.52;79377;1298;3011913;-64
2023/08/24 04:49:58;;;;;;;14.10;5.60;;;;;;;19.71;57.27;99523.83;78079;1298;3049701;-66
2023/08/24 04:52:25;;;;;;;15.50;5.80;;;;;;;19.79;57.36;99520.42;79179;1302;3013097;-66
2023/08/24 04:54:51;;;;;;;15.10;5.60;;;;;;;19.86;57.05;99519.61;79270;1304;3011507;-64
2023/08/24 04:57:19;;;;;;;15.50;6.00;;;;;;;19.92;57.24;99519.14;78200;1298;3028501;-66
2023/08/24 04:59:45;;;;;;;15.50;5.40;;;;;;;19.97;57.16;99520.61;79314;1301;3013828;-67
2023/08/24 05:02:12;;;;;;;17.40;5.60;;;;;;;20.04;57.01;99518.48;79364;1298;3014009;-63
2023/08/24 05:04:40;;;;;;;13.00;5.60;;;;;;;20.10;56.90;99525.88;78130;1298;3026029;-68
2023/08/24 05:07:06;;;;;;;19.30;5.80;;;;;;;20.19;56.86;99526.98;79446;1298;3013428;-64
2023/08/24 05:09:33;;;;;;;18.00;5.40;;;;;;;20.24;56.95;99528.81;79212;1300;3011527;-72
2023/08/24 05:12:01;;;;;;;13.30;4.70;;;;;;;20.28;56.63;99523.76;78081;1301;3027286;-63
2023/08/24 05:14:27;;;;;;;10.10;4.80;;;;;;;20.35;56.31;99519.56;79305;1297;3013175;-63
2023/08/24 05:16:54;;;;;;;9.10;4.20;;;;;;;20.35;56.90;99518.10;79318;1301;3011841;-68
2023/08/24 05:19:22;;;;;;;11.60;4.50;;;;;;;20.45;56.98;99521.52;78226;1298;3028507;-67
2023/08/24 05:21:48;;;;;;;12.90;3.60;;;;;;;20.50;56.25;99517.66;79380;1298;3013600;-65
2023/08/24 05:24:15;;;;;;;6.10;3.00;;;;;;;20.52;55.73;99522.13;79273;1297;3013708;-69
2023/08/24 05:26:44;;;;;;;10.10;3.20;;;;;;;20.61;55.47;99517.75;78202;1304;3053392;-66
2023/08/24 05:29:10;;;;;;;7.80;3.20;;;;;;;20.65;55.49;99514.17;79389;1298;3018621;-64
2023/08/24 05:31:37;;;;;;;9.10;3.60;;;;;;;20.70;55.49;99513.20;79122;1300;3011990;-65
2023/08/24 05:34:05;;;;;;;9.50;3.20;;;;;;;20.74;55.19;99514.89;78015;1301;3029408;-64
2023/08/24 05:36:32;;;;;;;7.90;3.70;;;;;;;20.81;55.23;99512.40;79301;1298;3012836;-65
2023/08/24 05:38:58;;;;;;;11.00;3.50;;;;;;;20.92;55.09;99515.89;79176;1298;3012061;-66
2023/08/24 05:41:26;;;;;;;13.70;3.40;;;;;;;21.00;54.94;99514.71;77948;1303;3052326;-62
2023/08/24 05:43:53;;;;;;;13.30;3.60;;;;;;;21.03;54.50;99513.48;79235;1302;3013886;-72
2023/08/24 05:46:20;;;;;;;10.20;3.30;;;;;;;21.06;54.33;99512.13;79383;1298;3012299;-67
2023/08/24 05:48:47;;;;;;;8.80;3.20;;;;;;;21.15;54.53;99511.39;78206;1301;3029223;-66
2023/08/24 05:51:14;;;;;;;8.20;3.20;;;;;;;21.21;53.98;99512.15;79339;1301;3013794;-65
2023/08/24 05:53:40;;;;;;;12.80;3.80;;;;;;;21.29;53.85;99512.99;79513;1301;3011903;-69
2023/08/24 05:56:08;;;;;;;12.40;3.00;;;;;;;21.37;53.65;99510.67;78171;1301;3026408;-68
2023/08/24 05:58:35;;;;;;;10.60;3.30;;;;;;;21.49;53.11;99514.25;79357;1298;3012790;-67
2023/08/24 06:01:02;;;;;;;7.40;2.80;;;;;;;21.60;52.64;99516.65;79309;1300;3011591;-64
2023/08/24 06:03:29;;;;;;;5.90;2.90;;;;;;;21.67;51.91;99515.80;78047;1300;3028746;-67
2023/08/24 06:06:03;;;;;;;9.00;3.10;;;;;;;21.72;50.99;99514.30;79504;1295;3020581;-68
2023/08/24 06:08:31;;;;;;;9.20;3.10;;;;;;;21.77;50.14;99515.55;78242;1300;3053188;-68
2023/08/24 06:10:58;;;;;;;13.40;3.40;;;;;;;21.87;50.46;99513.10;79403;1300;3020688;-65
2023/08/24 06:13:25;;;;;;;10.30;3.70;;;;;;;21.95;50.03;99512.90;79390;1295;3011781;-72
2023/08/24 06:15:54;;;;;;;13.70;4.30;;;;;;;22.05;49.57;99511.52;78193;1295;3025663;-66
2023/08/24 06:18:20;;;;;;;10.70;4.80;;;;;;;22.13;49.21;99511.01;79470;1295;3013147;-65
2023/08/24 06:20:48;;;;;;;13.30;4.00;;;;;;;22.18;48.47;99510.44;79514;1298;3011921;-67
2023/08/24 06:23:17;;;;;;;17.30;4.50;;;;;;;22.28;48.43;99512.45;78225;1298;3052024;-67
2023/08/24 06:25:44;;;;;;;8.60;4.00;;;;;;;22.40;47.95;99515.05;79345;1300;3013468;-63
2023/08/24 06:28:11;;;;;;;12.20;4.70;;;;;;;22.50;47.02;99518.48;79371;1301;3013343;-67
2023/08/24 06:30:39;;;;;;;13.70;4.30;;;;;;;22.57;46.61;99520.52;78149;1298;3057263;-64
2023/08/24 06:33:06;;;;;;;8.80;3.60;;;;;;;22.65;46.04;99518.18;79436;1298;3013705;-65
2023/08/24 06:35:33;;;;;;;13.60;3.50;;;;;;;22.74;45.19;99519.01;79312;1296;3012619;-65
2023/08/24 06:38:04;;;;;;;8.70;3.20;;;;;;;22.84;45.08;99511.98;78390;1300;3052345;-63
2023/08/24 06:40:31;;;;;;;9.00;2.90;;;;;;;22.91;44.08;99511.56;79280;1300;3012870;-63
2023/08/24 06:43:00;;;;;;;6.50;2.90;;;;;;;22.99;44.32;99513.59;78740;1298;3011463;-65
2023/08/24 06:45:26;;;;;;;9.30;3.00;;;;;;;22.99;43.52;99517.88;79395;1296;3013354;-64
2023/08/24 06:47:53;;;;;;;10.70;3.00;;;;;;;23.04;43.57;99518.56;79654;1296;3011758;-67
2023/08/24 06:50:21;;;;;;;5.30;2.70;;;;;;;23.12;43.83;99513.21;78253;1294;3025993;-65
2023/08/24 06:52:47;;;;;;;6.80;2.40;;;;;;;23.23;43.15;99517.84;79678;1300;3013546;-66
2023/08/24 06:55:14;;;;;;;7.60;2.40;;;;;;;23.34;42.71;99521.16;79533;1294;3011570;-66
2023/08/24 06:57:47;;;;;;;9.00;2.60;;;;;;;23.41;41.95;99523.85;78135;1298;3027063;-63
2023/08/24 07:00:15;;;;;;;7.60;2.60;;;;;;;23.49;41.61;99520.88;79604;1299;3011651;-65
2023/08/24 07:02:42;;;;;;;6.20;2.80;;;;;;;23.60;42.46;99516.92;78405;1296;3056613;-64
2023/08/24 07:05:09;;;;;;;11.70;3.10;;;;;;;23.72;42.27;99516.91;79532;1295;3012694;-67
2023/08/24 07:07:36;;;;;;;6.90;2.30;;;;;;;23.75;41.45;99518.00;79452;1295;3011817;-64
2023/08/24 07:10:04;;;;;;;6.60;2.00;;;;;;;23.81;40.72;99520.27;78243;1297;3026524;-64
2023/08/24 07:12:31;;;;;;;6.20;2.40;;;;;;;23.85;39.85;99522.97;79506;1295;3013464;-63
2023/08/24 07:14:58;;;;;;;9.10;2.50;;;;;;;23.88;39.89;99520.89;79634;1295;3011452;-63
2023/08/24 07:17:26;;;;;;;4.50;2.20;;;;;;;23.94;40.16;99522.00;78487;1301;3056482;-64
2023/08/24 07:19:52;;;;;;;7.90;2.60;;;;;;;24.03;39.90;99520.19;79461;1295;3013342;-63
2023/08/24 07:22:19;;;;;;;6.70;3.10;;;;;;;24.12;39.96;99520.19;79554;1295;3011407;-66
2023/08/24 07:24:52;;;;;;;5.60;2.60;;;;;;;24.21;40.05;99520.55;78094;1300;3027878;-62
2023/08/24 07:27:18;;;;;;;5.30;2.50;;;;;;;24.21;39.23;99519.75;79560;1301;3013042;-66
2023/08/24 07:29:46;;;;;;;7.20;2.70;;;;;;;24.18;38.99;99518.59;78168;1295;3026643;-66
2023/08/24 07:32:13;;;;;;;7.50;2.00;;;;;;;24.19;38.93;99518.70;79371;1295;3013169;-64
2023/08/24 07:34:39;;;;;;;5.80;2.30;;;;;;;24.27;39.00;99516.85;79699;1295;3011952;-66
2023/08/24 07:37:07;;;;;;;4.20;1.80;;;;;;;24.34;38.99;99514.80;78232;1298;3026428;-65
2023/08/24 07:39:34;;;;;;;6.80;2.40;;;;;;;24.38;39.04;99510.16;79403;1298;3018324;-68
2023/08/24 07:42:00;;;;;;;5.80;2.30;;;;;;;24.42;38.87;99514.20;79509;1300;3013603;-65
2023/08/24 07:44:28;;;;;;;10.80;2.10;;;;;;;24.48;38.87;99510.84;78263;1301;3027752;-67
2023/08/24 07:46:55;;;;;;;5.80;1.90;;;;;;;24.29;37.96;99519.52;79483;1298;3013573;-65
2023/08/24 07:49:22;;;;;;;6.90;1.90;;;;;;;24.24;38.12;99521.67;79431;1295;3011678;-68
2023/08/24 07:51:49;;;;;;;8.30;2.20;;;;;;;24.28;38.15;99524.27;78211;1295;3026386;-67
2023/08/24 07:54:16;;;;;;;5.60;1.60;;;;;;;24.33;38.41;99521.40;79470;1301;3019420;-67
2023/08/24 07:56:42;;;;;;;10.60;2.10;;;;;;;24.29;38.58;99518.37;79622;1296;3011730;-66
2023/08/24 07:59:10;;;;;;;6.10;1.90;;;;;;;24.46;38.56;99520.41;78286;1294;3026620;-67
2023/08/24 08:01:37;;;;;;;6.10;1.80;;;;;;;24.48;38.43;99520.15;79386;1295;3021014;-66
2023/08/24 08:04:03;;;;;;;7.40;1.60;;;;;;;24.62;38.45;99515.30;79498;1301;3011701;-66
2023/08/24 08:06:31;;;;;;;5.60;1.60;;;;;;;24.79;38.54;99503.45;78472;1295;3025965;-66
2023/08/24 08:08:58;;;;;;;10.20;2.30;;;;;;;24.95;38.72;99496.16;79454;1300;3013376;-66
2023/08/24 08:11:25;;;;;;;4.80;2.20;;;;;;;24.99;38.02;99501.74;79641;1300;3011353;-64
2023/08/24 08:13:52;;;;;;;7.00;3.00;;;;;;;24.82;37.98;99505.04;78209;1297;3026643;-64
2023/08/24 08:16:19;;;;;;;8.90;3.40;;;;;;;24.59;37.84;99514.67;79500;1300;3013763;-66
2023/08/24 08:18:46;;;;;;;11.00;2.80;;;;;;;24.52;38.23;99511.38;79450;1295;3011876;-65
2023/08/24 08:21:20;;;;;;;7.00;2.80;;;;;;;24.43;38.18;99508.38;78381;1301;3025884;-65
2023/08/24 08:23:49;;;;;;;6.50;2.40;;;;;;;24.50;38.37;99507.52;78930;1299;3011782;-64
2023/08/24 08:26:16;;;;;;;6.00;2.50;;;;;;;24.61;38.14;99510.93;79424;1299;3013143;-62
2023/08/24 08:28:42;;;;;;;16.20;2.90;;;;;;;24.68;38.28;99506.02;79361;1300;3011571;-65
2023/08/24 08:31:10;;;;;;;11.80;3.70;;;;;;;24.77;38.07;99504.17;78326;1295;3028163;-64
2023/08/24 08:33:37;;;;;;;11.60;4.30;;;;;;;24.80;37.72;99504.55;79563;1300;3013868;-63
2023/08/24 08:36:04;;;;;;;10.00;4.40;;;;;;;24.78;37.52;99505.42;79417;1300;3011595;-65
2023/08/24 08:38:32;;;;;;;10.20;4.20;;;;;;;24.75;37.76;99503.89;78163;1297;3028908;-64
2023/08/24 08:41:03;;;;;;;6.30;3.20;;;;;;;24.68;37.77;99509.20;79406;1301;3018687;-65
2023/08/24 08:43:31;;;;;;;8.90;3.80;;;;;;;24.79;37.73;99508.30;78315;1298;3053082;-64
2023/08/24 08:45:58;;;;;;;16.60;4.00;;;;;;;24.93;37.56;99498.73;79406;1300;3013633;-63
2023/08/24 08:48:25;;;;;;;9.40;3.50;;;;;;;25.15;37.51;99496.81;79305;1295;3011491;-65
2023/08/24 08:50:59;;;;;;;8.50;3.30;;;;;;;25.35;37.31;99497.55;78257;1301;3026063;-66
2023/08/24 08:53:28;;;;;;;6.90;3.10;;;;;;;25.44;37.16;99494.48;78950;1296;3011497;-65
2023/08/24 08:55:55;;;;;;;8.40;2.30;;;;;;;25.41;37.39;99494.10;79507;1298;3019571;-66
2023/08/24 08:58:21;;;;;;;5.80;2.30;;;;;;;25.38;36.48;99493.09;79531;1299;3011406;-65
2023/08/24 09:00:49;;;;;;;8.00;2.50;;;;;;;25.33;36.67;99490.48;78090;1304;3028094;-65
2023/08/24 09:03:17;;;;;;;10.30;3.20;;;;;;;25.37;36.76;99494.30;79532;1301;3012966;-65
2023/08/24 09:05:47;;;;;;;5.10;3.30;;;;;;;25.30;36.81;99492.80;79413;1295;3011612;-65
2023/08/24 09:08:18;;;;;;;7.40;4.10;;;;;;;25.45;36.91;99492.08;78203;1301;3049724;-64
2023/08/24 09:10:45;;;;;;;6.80;3.30;;;;;;;25.51;36.94;99493.86;79506;1301;3011800;-69
2023/08/24 09:13:14;;;;;;;8.40;3.70;;;;;;;25.41;37.09;99489.30;79118;1298;3011844;-64
2023/08/24 09:15:40;;;;;;;6.60;3.50;;;;;;;25.18;37.36;99496.70;79374;1300;3014787;-66
2023/08/24 09:18:07;;;;;;;9.40;3.70;;;;;;;25.24;37.34;99497.86;79461;1299;3011408;-65
2023/08/24 09:20:35;;;;;;;4.20;2.80;;;;;;;25.48;36.91;99490.30;78236;1299;3051636;-64
2023/08/24 09:23:02;;;;;;;4.40;2.10;;;;;;;25.61;36.70;99489.34;79380;1298;3020921;-65
2023/08/24 09:25:29;;;;;;;5.30;2.20;;;;;;;25.73;36.33;99486.68;79298;1297;3011558;-67
2023/08/24 09:28:01;;;;;;;5.30;2.20;;;;;;;25.64;36.41;99487.71;78261;1298;3026999;-64
2023/08/24 09:30:31;;;;;;;8.10;3.10;;;;;;;25.60;36.24;99488.98;79533;1298;3011666;-70
2023/08/24 09:33:09;;;;;;;7.20;2.70;;;;;;;25.51;36.50;99488.30;78292;1295;3052590;-65
2023/08/24 09:35:37;;;;;;;18.50;2.80;;;;;;;25.65;36.86;99486.23;78084;1301;3069459;-64
2023/08/24 09:38:20;;;;;;;7.80;2.70;;;;;;;25.83;36.92;99481.14;79476;1300;3018936;-65
2023/08/24 09:40:51;;;;;;;4.90;2.30;;;;;;;26.14;36.53;99481.81;78357;1295;3050278;-64
2023/08/24 09:43:18;;;;;;;10.40;2.40;;;;;;;26.35;36.00;99478.60;79380;1299;3011865;-66
2023/08/24 09:45:52;;;;;;;8.10;2.90;;;;;;;26.39;35.65;99481.41;78200;1299;3026617;-65
2023/08/24 09:48:19;;;;;;;5.90;2.40;;;;;;;26.35;36.11;99485.40;79407;1297;3011660;-63
2023/08/24 09:50:51;;;;;;;5.90;2.30;;;;;;;26.20;36.16;99484.61;78538;1295;3052272;-65
2023/08/24 09:53:22;;;;;;;3.90;1.70;;;;;;;25.91;36.50;99493.06;79514;1299;3012937;-71
2023/08/24 09:55:54;;;;;;;5.40;2.20;;;;;;;25.65;36.66;99485.45;78288;1298;3051089;-64
2023/08/24 09:58:24;;;;;;;5.50;1.90;;;;;;;25.71;36.58;99480.23;79536;1295;3011996;-67
2023/08/24 10:00:52;;;;;;;4.20;1.70;;;;;;;25.99;36.32;99477.38;78262;1295;3049333;-68
2023/08/24 10:03:20;;;;;;;4.40;2.00;;;;;;;26.02;36.26;99479.09;79554;1295;3013062;-65
2023/08/24 10:05:52;;;;;;;6.90;2.10;;;;;;;26.06;35.93;99478.48;79424;1296;3011595;-66
2023/08/24 10:08:24;;;;;;;5.10;1.80;;;;;;;26.03;35.69;99478.79;78319;1301;3053282;-64
2023/08/24 10:10:53;;;;;;;2.50;1.70;;;;;;;26.07;35.89;99475.05;79480;1295;3011680;-65
2023/08/24 10:13:48;;;;;;;5.20;2.40;;;;;;;26.36;35.60;99470.83;78271;1301;3051091;-66
2023/08/24 10:16:18;;;;;;;11.70;2.70;;;;;;;26.46;34.99;99467.11;78367;1300;3056350;-70
2023/08/24 10:18:44;;;;;;;4.90;1.80;;;;;;;26.46;35.31;99472.27;79519;1295;3011836;-67
2023/08/24 10:21:11;;;;;;;10.00;2.40;;;;;;;26.57;35.34;99467.73;79430;1301;3011946;-63
2023/08/24 10:23:39;;;;;;;8.00;3.20;;;;;;;26.69;35.05;99467.48;78316;1301;3052784;-66
2023/08/24 10:26:06;;;;;;;5.50;2.50;;;;;;;26.67;34.79;99467.65;79506;1301;3018729;-64
2023/08/24 10:28:33;;;;;;;6.10;2.70;;;;;;;26.72;34.80;99463.40;79692;1295;3011626;-64
2023/08/24 10:31:01;;;;;;;5.30;3.30;;;;;;;26.43;34.94;99466.92;78388;1298;3056545;-65
2023/08/24 10:33:28;;;;;;;6.60;2.40;;;;;;;26.33;35.17;99465.16;79529;1299;3012891;-65
2023/08/24 10:35:54;;;;;;;4.40;2.50;;;;;;;26.36;34.94;99457.06;79608;1301;3012560;-64
2023/08/24 10:38:26;;;;;;;6.70;2.30;;;;;;;26.67;34.72;99450.92;78266;1300;3026001;-64
2023/08/24 10:40:53;;;;;;;7.80;2.90;;;;;;;27.02;34.55;99447.14;79630;1301;3011771;-67
2023/08/24 10:43:24;;;;;;;8.80;2.70;;;;;;;27.27;34.36;99443.23;78498;1295;3027136;-66
2023/08/24 10:45:57;;;;;;;6.00;2.50;;;;;;;27.36;34.08;99442.55;79565;1295;3011955;-66
2023/08/24 10:48:37;;;;;;;12.00;2.60;;;;;;;27.43;34.25;99438.92;78386;1298;3056282;-67
2023/08/24 10:51:19;;;;;;;8.20;2.60;;;;;;;27.62;33.98;99441.11;78177;1296;3049264;-65
2023/08/24 10:53:55;;;;;;;6.00;2.30;;;;;;;27.75;33.78;99433.61;78275;1301;3053298;-66
2023/08/24 10:56:34;;;;;;;8.20;3.00;;;;;;;27.87;33.43;99436.90;78297;1300;3050889;-66
2023/08/24 10:59:12;;;;;;;8.00;2.80;;;;;;;27.62;33.13;99438.99;78343;1299;3051761;-67
2023/08/24 11:02:04;;;;;;;8.20;2.80;;;;;;;27.36;33.59;99430.64;78402;1301;3053225;-65
2023/08/24 11:04:32;;;;;;;5.60;2.60;;;;;;;27.57;33.63;99430.61;78255;1301;3068159;-68
2023/08/24 11:07:00;;;;;;;6.00;2.70;;;;;;;27.65;33.71;99426.52;79432;1296;3013385;-65
2023/08/24 11:09:27;;;;;;;11.40;2.50;;;;;;;27.63;33.87;99431.45;79554;1296;3011915;-69
2023/08/24 11:11:57;;;;;;;6.30;3.00;;;;;;;27.29;34.18;99431.35;78138;1297;3053376;-66
2023/08/24 11:14:26;;;;;;;6.00;2.70;;;;;;;27.32;34.07;99429.99;79609;1296;3013518;-68
2023/08/24 11:16:54;;;;;;;7.10;2.90;;;;;;;27.12;33.60;99425.77;78216;1301;3052121;-69
2023/08/24 11:19:21;;;;;;;5.60;2.50;;;;;;;27.28;33.86;99416.78;79460;1299;3013414;-68